メインページ
METAR-TAF:

METAR-TAF

空港 :

香港, 中華人民共和国

香港国際空港

緯度: 22-19N, 経度: 113-55E, 海抜: 9m

現時点の気象観測

当レポートは14分前の14:30(UTC)に作成
の風 8kt
気温 30°C
湿度 75%
気圧 1004 hPa
視程10km以上
高度3000ftの雲はほとんどない

METAR: VHHH 271430Z 09008KT 9999 FEW030 30/25 Q1004 NOSIG

時間: 22:44 (14:44 UTC)

予報

当レポートは3時間44分前の11:00(UTC)に作成
予報は27日の 12時(UTC)から 28日の 18時(UTC)まで有効
東/北東の風 10kt
視程10km以上
高度2000ftの雲はほとんどない
高度3500ftの雲は散在している
27日の 18時(UTC)から 28日の 03時(UTC)まで一時的に
の風 15kt、最大25ktの突風を伴う
視程: 3000m
高度1000ftの雲はほとんどない, 積乱雲.
高度2000ftの雲は散在している
にわか雨

TAF: VHHH 271100Z 2712/2818 07010KT 9999 FEW020 SCT035 TX33/2806Z TN28/2722Z TEMPO 2718/2803 08015G25KT 3000 SHRA FEW010CB SCT020

4,000以上の空港の気象観測と天気予報(METAR報とTAF報)

利用可能な観測所は地図上に黄色い丸と赤い丸で示す。

丸の上にカーソルを重ねると観測所名を参照できる。

次にクリックすると気象観測と天気予報を参照できる。

マップの切り替え:黒色「×」印の緑ボタンをクリックして拡大、「-」印の緑ボタンをクリックして縮小、緑色の三角印をクリックして隣りの地図に切り替え


METAR-TAF: